الصفحة الرئيسية
METAR-TAF:

METAR-TAF

مطار :

البحرين, البحرين

مطار البحرين الدولي

دائرة عرض: 26-16N, خط طول: 050-39E, ارتفاع: 2 متر

مراقبة الطقس الحالي

تاريخ ووقت الإصدار 13 دقيقة قبل الساعة 03:30UTC
ريح 2 عقدةمن اتجاهات متغيرة
درجة الحرارة 13°درجة مئوية
الرطوبة 88%
ضغط 1016 hPa
الرؤية 10 كم أو أكثر
الغيوم لا تقل 1500 م ولا وجود لمزنة ركامية السحاب الأسود

METAR: OBBI 190330Z VRB02KT CAVOK 13/11 Q1016 NOSIG

زمن: 06:43 (03:43 UTC)

توقعات

تاريخ ووقت الإصدار 4ساعات و 43 دقيقة قبل الساعة 23:00UTC
التوقعات صالحة من19 الساعة 00 UTC إلى 20 الساعة 06 UTC
ريح 5 عقدةمن اتجاهات متغيرة
الرؤية 10 كم أو أكثر
الغيوم لا تقل 1500 م ولا وجود لمزنة ركامية السحاب الأسود
نظرية الاحتمالات 30% :
مؤقت
من 19 الساعة 01 UTC إلى 19 الساعة 04 UTC
الرؤية: 5000 متر
العجاج
أصبح
من 19 الساعة 04 UTC إلى 19 الساعة 06 UTC
ريح 10 عقدة من الجنوب/الجنوب الشرقي
أصبح
من 19 الساعة 14 UTC إلى 19 الساعة 16 UTC
ريح 12 عقدة من الجنوب/الجنوب الشرقي تتزايد حتى 22 عقدة

TAF: OBBI 182300Z 1900/2006 VRB05KT CAVOK PROB30 TEMPO 1901/1904 5000 HZ BECMG 1904/1906 15010KT BECMG 1914/1916 16012G22KT

أرصاد الطقس والتوقعات من أكثر من 4000 مطار (تقارير الطقس للمطار METAR والتنبؤ بالطقس بالمطارTAF).

المحطات المتاحة هي النقط الصفراء والحمراء على الخريطة.

حرك المؤشر فوق النقطة لمعرفة اسم المحطة.

ثم انقر لمعرفة أرصاد وتوقعات الطقس.

لتغيير الخارطة: اضغط على الأزرار الخضراء مع رمز الصليب الأسود للتكبير. على الزر الأخضر مع شرطة للتصغير، أو على الأسهم الخضراء للخرائط المجاورة.


METAR-TAF: